createdAt,value
2022-10-03T00:02:45.410Z,91.40
2022-10-03T00:07:54.284Z,91.52
2022-10-03T00:13:19.651Z,91.31
2022-10-03T00:18:44.409Z,90.82
2022-10-03T00:23:58.727Z,90.47
2022-10-03T00:29:42.170Z,91.19
2022-10-03T00:34:51.183Z,91.24
2022-10-03T00:40:06.731Z,91.41
2022-10-03T00:45:37.379Z,92.36
2022-10-03T00:51:05.776Z,94.12
2022-10-03T00:56:22.243Z,94.87
2022-10-03T01:01:29.303Z,95.95
2022-10-03T01:06:35.678Z,95.21
2022-10-03T01:11:58.119Z,96.43
2022-10-03T01:17:17.787Z,96.10
2022-10-03T01:22:51.868Z,96.93
2022-10-03T01:28:26.376Z,96.87
2022-10-03T01:33:42.568Z,97.03
2022-10-03T01:38:55.089Z,96.96
2022-10-03T01:44:13.105Z,96.64
2022-10-03T01:49:17.135Z,96.74
2022-10-03T01:54:31.877Z,97.33
2022-10-03T01:59:55.989Z,97.33
2022-10-03T02:05:17.404Z,97.75
2022-10-03T02:10:21.337Z,97.15
2022-10-03T02:15:33.318Z,97.19
2022-10-03T02:20:52.502Z,97.15
2022-10-03T02:26:27.276Z,96.86
2022-10-03T02:32:16.469Z,96.25
2022-10-03T02:37:38.443Z,95.88
2022-10-03T02:43:16.552Z,94.85
2022-10-03T02:48:32.901Z,94.35
2022-10-03T02:54:01.613Z,94.27
2022-10-03T02:59:07.439Z,94.30
2022-10-03T03:04:48.242Z,94.11
2022-10-03T03:10:40.395Z,94.13
2022-10-03T03:16:22.008Z,94.22
2022-10-03T03:21:34.302Z,93.85
2022-10-03T03:26:46.647Z,94.58
2022-10-03T03:32:11.248Z,94.51
2022-10-03T03:37:49.133Z,94.65
2022-10-03T03:42:58.909Z,94.69
2022-10-03T03:48:14.484Z,94.79
2022-10-03T03:53:39.383Z,94.99
2022-10-03T03:59:04.059Z,94.68
2022-10-03T04:04:19.579Z,94.95
2022-10-03T04:09:44.633Z,94.92
2022-10-03T04:14:59.914Z,95.38
2022-10-03T04:20:27.072Z,95.29
2022-10-03T04:26:08.911Z,95.26
2022-10-03T04:31:55.136Z,94.69
2022-10-03T04:37:40.424Z,95.03
2022-10-03T04:42:50.403Z,94.71
2022-10-03T04:48:07.017Z,94.24
2022-10-03T04:53:41.605Z,93.89
2022-10-03T04:59:26.960Z,94.25
2022-10-03T05:04:37.031Z,94.83
2022-10-03T05:10:06.618Z,94.37
2022-10-03T05:15:24.548Z,95.08
2022-10-03T05:20:45.033Z,95.12
2022-10-03T05:32:33.934Z,96.02
2022-10-03T05:37:49.637Z,96.43
2022-10-03T05:43:01.765Z,96.96
2022-10-03T05:48:30.079Z,97.24
2022-10-03T05:53:58.666Z,96.32
2022-10-03T05:59:14.549Z,96.77
2022-10-03T06:04:50.568Z,96.19
2022-10-03T06:09:54.097Z,100.00
2022-10-03T06:15:35.153Z,77.98
2022-10-03T06:21:16.107Z,64.69
2022-10-03T06:26:22.740Z,57.63
2022-10-03T06:31:54.107Z,53.83
2022-10-03T06:37:23.923Z,48.47
2022-10-03T06:42:53.805Z,48.47
2022-10-03T06:48:15.180Z,45.91
2022-10-03T06:53:43.016Z,44.14
2022-10-03T06:58:58.565Z,42.71
2022-10-03T07:04:17.051Z,37.71
2022-10-03T07:09:38.658Z,41.88
2022-10-03T07:15:03.399Z,36.97
2022-10-03T07:20:33.524Z,39.79
2022-10-03T07:26:14.194Z,38.39
2022-10-03T07:31:47.151Z,35.68
2022-10-03T07:37:31.440Z,34.84
2022-10-03T07:42:46.940Z,35.80
2022-10-03T07:48:13.626Z,37.88
2022-10-03T07:53:35.665Z,37.56
2022-10-03T07:58:57.319Z,35.67
2022-10-03T08:04:21.917Z,35.89
2022-10-03T08:09:54.570Z,35.61
2022-10-03T08:15:08.826Z,35.97
2022-10-03T08:20:29.537Z,34.00
2022-10-03T08:26:14.083Z,34.79
2022-10-03T08:31:28.955Z,36.78
2022-10-03T08:37:12.481Z,33.69
2022-10-03T08:42:18.600Z,35.18
2022-10-03T08:47:59.300Z,34.05
2022-10-03T08:53:24.676Z,32.70
2022-10-03T08:58:49.210Z,33.53
2022-10-03T09:04:04.838Z,33.48
2022-10-03T09:09:36.651Z,33.49
2022-10-03T09:14:51.964Z,32.58
2022-10-03T09:20:02.521Z,33.33
2022-10-03T09:25:32.203Z,32.97
2022-10-03T09:31:05.897Z,31.17
2022-10-03T09:36:46.260Z,32.01
2022-10-03T09:42:22.776Z,33.38
2022-10-03T09:47:50.852Z,32.38
2022-10-03T09:53:15.908Z,31.76
2022-10-03T09:58:19.348Z,32.02
2022-10-03T10:03:47.941Z,32.36
2022-10-03T10:09:23.651Z,34.94
2022-10-03T10:14:48.120Z,35.88
2022-10-03T10:20:07.853Z,32.76
2022-10-03T10:25:38.185Z,34.42
2022-10-03T10:31:16.473Z,34.13
2022-10-03T10:36:47.587Z,34.99
2022-10-03T10:42:18.516Z,34.24
2022-10-03T10:47:46.179Z,36.40
2022-10-03T10:53:28.034Z,37.50
2022-10-03T10:58:59.336Z,35.86
2022-10-03T11:04:24.393Z,35.76
2022-10-03T11:10:00.920Z,37.65
2022-10-03T11:15:23.324Z,36.88
2022-10-03T11:20:52.708Z,35.54
2022-10-03T11:26:32.861Z,36.88
2022-10-03T11:32:10.076Z,35.57
2022-10-03T11:37:32.954Z,34.93
2022-10-03T11:42:48.662Z,35.91
2022-10-03T11:48:23.868Z,35.99
2022-10-03T11:53:32.768Z,36.50
2022-10-03T11:58:57.786Z,36.21
2022-10-03T12:04:13.498Z,34.27
2022-10-03T12:09:30.278Z,31.84
2022-10-03T12:14:45.174Z,32.57
2022-10-03T12:20:01.122Z,32.14
2022-10-03T12:25:20.332Z,31.90
2022-10-03T12:30:25.739Z,34.63
2022-10-03T12:35:36.250Z,32.94
2022-10-03T12:40:46.892Z,32.31
2022-10-03T12:46:00.834Z,33.05
2022-10-03T12:51:23.561Z,31.96
2022-10-03T12:56:36.010Z,34.71
2022-10-03T13:02:00.719Z,34.66
2022-10-03T13:07:15.477Z,33.61
2022-10-03T13:12:41.016Z,31.63
2022-10-03T13:17:51.716Z,33.69
2022-10-03T13:23:10.758Z,32.03
2022-10-03T13:28:21.628Z,32.86
2022-10-03T13:33:28.404Z,31.13
2022-10-03T13:39:05.523Z,31.29
2022-10-03T13:44:15.292Z,31.52
2022-10-03T13:49:45.741Z,30.41
2022-10-03T13:54:55.323Z,30.60
2022-10-03T14:00:12.751Z,31.83
2022-10-03T14:05:34.210Z,34.21
2022-10-03T14:11:11.302Z,30.74
2022-10-03T14:16:30.585Z,34.57
2022-10-03T14:21:51.507Z,35.34
2022-10-03T14:27:39.942Z,33.18
2022-10-03T14:33:17.266Z,34.30
2022-10-03T14:39:00.561Z,36.68
2022-10-03T14:44:13.556Z,37.15
2022-10-03T14:49:52.220Z,39.99
2022-10-03T14:54:54.908Z,41.31
2022-10-03T14:59:58.690Z,38.87
2022-10-03T15:05:09.053Z,39.74
2022-10-03T15:10:21.610Z,43.23
2022-10-03T15:15:29.294Z,45.11
2022-10-03T15:20:37.754Z,48.84
2022-10-03T15:25:43.147Z,47.86
2022-10-03T15:30:47.287Z,45.91
2022-10-03T15:35:55.595Z,47.63
2022-10-03T15:41:21.292Z,47.98
2022-10-03T15:46:33.400Z,48.64
2022-10-03T15:51:39.459Z,50.96
2022-10-03T15:56:46.461Z,52.60
2022-10-03T16:01:54.131Z,54.67
2022-10-03T16:07:09.631Z,56.42
2022-10-03T16:12:34.306Z,57.42
2022-10-03T16:17:50.012Z,57.81
2022-10-03T16:22:54.882Z,59.36
2022-10-03T16:28:03.889Z,62.15
2022-10-03T16:33:16.674Z,62.49
2022-10-03T16:38:31.348Z,63.30
2022-10-03T16:43:35.930Z,68.40
2022-10-03T16:49:02.851Z,71.22
2022-10-03T16:54:12.829Z,72.38
2022-10-03T16:59:21.802Z,75.18
2022-10-03T17:04:33.515Z,75.75
2022-10-03T17:09:37.813Z,77.17
2022-10-03T17:14:43.426Z,78.45
2022-10-03T17:19:58.633Z,78.95
2022-10-03T17:25:34.672Z,76.12
2022-10-03T17:30:52.535Z,74.56
2022-10-03T17:36:13.849Z,74.60
2022-10-03T17:41:48.577Z,74.79
2022-10-03T17:47:06.071Z,76.55
2022-10-03T17:52:21.474Z,77.78
2022-10-03T17:57:52.999Z,78.44
2022-10-03T18:03:07.620Z,79.37
2022-10-03T18:08:20.842Z,80.10
2022-10-03T18:13:47.489Z,80.48
2022-10-03T18:18:57.609Z,80.53
2022-10-03T18:24:23.186Z,80.40
2022-10-03T18:29:44.823Z,80.07
2022-10-03T18:34:53.078Z,79.45
2022-10-03T18:39:59.182Z,79.99
2022-10-03T18:45:03.771Z,80.24
2022-10-03T18:50:30.230Z,80.58
2022-10-03T18:56:18.703Z,81.35
2022-10-03T19:01:30.836Z,81.33
2022-10-03T19:06:41.997Z,81.54
2022-10-03T19:11:57.719Z,81.50
2022-10-03T19:17:26.137Z,81.27
2022-10-03T19:22:42.780Z,81.53
2022-10-03T19:27:52.574Z,82.04
2022-10-03T19:33:13.236Z,82.57
2022-10-03T19:38:23.437Z,82.97
2022-10-03T19:43:43.489Z,82.97
2022-10-03T19:49:01.697Z,83.51
2022-10-03T19:54:14.444Z,83.61
2022-10-03T19:59:18.827Z,84.27
2022-10-03T20:04:36.856Z,84.74
2022-10-03T20:09:56.300Z,85.23
2022-10-03T20:15:04.189Z,85.39
2022-10-03T20:20:16.632Z,85.97
2022-10-03T20:25:34.388Z,86.12
2022-10-03T20:30:53.510Z,86.99
2022-10-03T20:36:04.818Z,87.40
2022-10-03T20:41:20.253Z,88.16
2022-10-03T20:46:29.464Z,88.02
2022-10-03T20:51:42.979Z,87.99
2022-10-03T20:57:21.543Z,87.89
2022-10-03T21:02:32.006Z,88.29
2022-10-03T21:07:49.294Z,88.58
2022-10-03T21:13:00.335Z,88.96
2022-10-03T21:18:04.719Z,89.09
2022-10-03T21:23:22.236Z,89.67
2022-10-03T21:28:30.347Z,89.51
2022-10-03T21:34:07.959Z,89.45
2022-10-03T21:39:50.978Z,89.63
2022-10-03T21:44:54.011Z,89.94
2022-10-03T21:50:04.108Z,90.49
2022-10-03T21:55:26.586Z,90.80
2022-10-03T22:01:02.550Z,90.77
2022-10-03T22:06:19.926Z,90.81
2022-10-03T22:11:29.147Z,91.11
2022-10-03T22:17:20.576Z,91.08
2022-10-03T22:23:03.130Z,90.98
2022-10-03T22:28:26.096Z,91.21
2022-10-03T22:33:39.612Z,91.22
2022-10-03T22:38:44.003Z,91.56
2022-10-03T22:43:48.746Z,92.12
2022-10-03T22:49:06.448Z,92.47
2022-10-03T22:54:13.183Z,92.47
2022-10-03T22:59:33.108Z,92.55
2022-10-03T23:04:39.984Z,93.67
2022-10-03T23:10:01.937Z,92.17
2022-10-03T23:15:09.207Z,92.01
2022-10-03T23:20:18.495Z,92.36
2022-10-03T23:25:41.026Z,92.21
2022-10-03T23:30:51.113Z,92.39
2022-10-03T23:35:55.447Z,92.36
2022-10-03T23:41:02.468Z,93.09
2022-10-03T23:46:11.936Z,92.61
2022-10-03T23:51:19.714Z,92.82
2022-10-03T23:56:22.626Z,93.06
